Flight Track Log - Related Links

Times and Time Zones

All times are in EDT time to prevent confusion due to time zone crossing. See the WIG1064 flight status page for this flight to view local times or setup timezone preferences in your user account.

Time Position Orientation Groundspeed Altitude Reporting Facility
EDT Latitude Longitude Course Direction KTS MPH feet Rate Location/Type
Fri 08:00:03 AM 42.9906 -71.4919 322° Northwest 157 181 3,400  Level Boston Center
Fri 08:01:03 AM 43.0181 -71.5597 299° West 163 188 5,100 1,550 Climbing Boston Center
Fri 08:02:03 AM 43.0414 -71.6219 297° West 168 193 6,500 1,200 Climbing Boston Center
Fri 08:03:03 AM 43.0708 -71.6614 316° Northwest 168 193 7,500 750 Climbing Boston Center
Fri 08:04:00 AM 43.1528 -71.6723 304° West  Level FlightAware Approximate
Fri 08:04:03 AM 43.1108 -71.7178 314° West 176 203 8,000  Level Boston Center
Fri 08:05:00 AM 43.1866 -71.7214 322° Northwest  Level FlightAware Approximate
Fri 08:05:03 AM 43.1467 -71.7656 316° Northwest 195 224 8,000  Level Boston Center
Fri 08:06:03 AM 43.1947 -71.8164 322° Northwest 202 232 8,000  Level Boston Center
Fri 08:07:03 AM 43.2367 -71.8558 326° Northwest 202 232 8,000  Level Boston Center
Fri 08:08:03 AM 43.2869 -71.9097 322° Northwest 207 238 8,000  Level Boston Center
Fri 08:09:03 AM 43.3247 -71.9578 317° Northwest 207 238 8,000 50 Level Boston Center
Fri 08:10:03 AM 43.3728 -72.0089 322° Northwest 212 244 8,100  Climbing Boston Center
Fri 08:11:03 AM 43.4167 -72.0542 323° Northwest 212 244 8,000  Descending Boston Center
Fri 08:12:03 AM 43.4628 -72.1025 323° Northwest 212 244 8,100  Climbing Boston Center
Fri 08:13:03 AM 43.5047 -72.1597 315° West 207 238 8,000 -50 Descending Boston Center
Fri 08:14:03 AM 43.5483 -72.2139 318° Northwest 207 238 8,000 50 Level Boston Center
Fri 08:15:03 AM 43.5944 -72.2594 324° Northwest 207 238 8,100  Climbing Boston Center
Fri 08:16:03 AM 43.6403 -72.3025 326° Northwest 207 238 8,000 -50 Descending Boston Center
Fri 08:17:03 AM 43.6842 -72.3539 320° Northwest 202 232 8,000 -50 Level Boston Center
Fri 08:18:03 AM 43.7278 -72.4056 319° Northwest 202 232 7,900  Descending Boston Center
Fri 08:19:03 AM 43.7717 -72.4517 323° Northwest 202 232 8,000 50 Climbing Boston Center
Fri 08:20:03 AM 43.8194 -72.5006 324° Northwest 207 238 8,000 -50 Level Boston Center
Fri 08:21:03 AM 43.8592 -72.5553 315° West 202 232 7,900 -50 Descending Boston Center
Fri 08:22:03 AM 43.9028 -72.6072 319° Northwest 202 232 7,900  Level Boston Center
Fri 08:23:03 AM 43.9381 -72.6619 312° West 202 232 7,900  Level Boston Center
Fri 08:24:03 AM 43.9817 -72.7142 319° Northwest 202 232 7,900 50 Level Boston Center
Fri 08:25:03 AM 44.0256 -72.7636 321° Northwest 202 232 8,000 50 Climbing Boston Center
Fri 08:26:03 AM 44.0711 -72.8100 324° Northwest 207 238 8,000 -200 Level Boston Center
Fri 08:27:03 AM 44.1147 -72.8506 326° Northwest 201 231 7,600 -550 Descending Boston Center
Fri 08:28:03 AM 44.1708 -72.9061 325° Northwest 212 244 6,900 -700 Descending Boston Center
Fri 08:29:03 AM 44.2206 -72.9558 324° Northwest 219 252 6,200 -650 Descending Boston Center
Fri 08:30:03 AM 44.2725 -72.9997 329° Northwest 219 252 5,600 -950 Descending Boston Center
Fri 08:31:03 AM 44.3244 -73.0436 329° Northwest 219 252 4,300 -1,250 Descending Boston Center
Fri 08:32:03 AM 44.3783 -73.0850 331° Northwest 219 252 3,100 -1,100 Descending Boston Center
Fri 08:33:03 AM 44.4303 -73.1203 334° Northwest 208 239 2,100 -700 Descending Boston Center
Fri 08:34:03 AM 44.4758 -73.1325 349° North 183 211 1,700 -600 Descending Boston Center
Fri 08:35:03 AM 44.4944 -73.1561 318° Northwest 107 123 900 -700 Descending Boston Center
Fri 08:36:03 AM 44.4694 -73.1528 175° South 60 69 300 -250 Descending Boston Center
Fri 08:37:03 AM 44.4653 -73.1497 152° Southeast 49 56 400 100 Climbing Boston Center
Fri 08:39:00 AM 44.4667 -73.1500 324° Northwest  Level FlightAware Approximate
Fri 08:46:00 AM 44.4719 -73.1533 324° Northwest  Level Estimated

Login

Don't have an account? Register now (free) for customized features, flight alerts, and more!